Time;durP1;ratioP1;P1;durP2;ratioP2;P2;SDS_P1;SDS_P2;PMS_P1;PMS_P2;Temp;Humidity;BMP_temperature;BMP_pressure;BME280_temperature;BME280_humidity;BME280_pressure;Samples;Min_cycle;Max_cycle;Signal;HPM_P1;HPM_P2
2022/12/01 00:01:05;;;;;;;1999.90;999.90;;;;;;;3.46;100.00;98297.63;5055753;28;20139;-82
2022/12/01 00:03:31;;;;;;;1999.90;999.90;;;;;;;3.45;100.00;98296.81;5056088;28;20033;-81
2022/12/01 00:06:05;;;;;;;1999.90;999.90;;;;;;;3.38;100.00;98296.16;5056892;28;20502;-82
2022/12/01 00:08:31;;;;;;;1999.90;999.90;;;;;;;3.39;100.00;98288.84;5054117;28;20043;-82
2022/12/01 00:11:04;;;;;;;1999.90;999.90;;;;;;;3.34;100.00;98283.34;5054304;28;20032;-79
2022/12/01 00:13:29;;;;;;;1999.90;999.90;;;;;;;3.27;100.00;98282.66;5054607;28;20501;-80
2022/12/01 00:15:55;;;;;;;1999.90;999.90;;;;;;;3.27;100.00;98274.53;5054140;28;20047;-84
2022/12/01 00:18:20;;;;;;;1999.90;999.90;;;;;;;3.39;100.00;98291.53;5051764;28;20110;-80
2022/12/01 00:20:49;;;;;;;1999.90;999.90;;;;;;;3.47;100.00;98286.59;5053708;28;20078;-79
2022/12/01 00:23:15;;;;;;;1999.90;999.90;;;;;;;3.38;100.00;98288.03;5053883;28;20029;-79
2022/12/01 00:25:40;;;;;;;1999.90;999.90;;;;;;;3.39;100.00;98286.94;5052300;28;20028;-80
2022/12/01 00:28:05;;;;;;;1999.90;999.90;;;;;;;3.42;100.00;98296.47;5052325;28;20051;-78
2022/12/01 00:30:31;;;;;;;1999.90;999.90;;;;;;;3.36;100.00;98289.31;5052198;28;20040;-78
2022/12/01 00:32:56;;;;;;;1999.90;999.90;;;;;;;3.35;100.00;98291.22;5052140;28;20029;-78
2022/12/01 00:35:21;;;;;;;1999.90;999.90;;;;;;;3.15;100.00;98286.22;5052040;28;20025;-81
2022/12/01 00:37:47;;;;;;;1999.90;999.90;;;;;;;3.11;100.00;98286.94;5051992;28;20419;-78
2022/12/01 00:40:13;;;;;;;1999.90;999.90;;;;;;;3.11;100.00;98279.66;5051099;28;20099;-80
2022/12/01 00:42:38;;;;;;;1999.90;999.90;;;;;;;3.12;100.00;98292.13;5051947;28;20025;-80
2022/12/01 00:45:04;;;;;;;1999.90;999.90;;;;;;;3.19;100.00;98286.56;5052368;28;20032;-79
2022/12/01 00:47:29;;;;;;;1999.90;999.90;;;;;;;3.14;100.00;98284.56;5051943;28;20029;-80
2022/12/01 00:49:55;;;;;;;1999.90;999.90;;;;;;;3.20;100.00;98278.22;5051659;28;20084;-79
2022/12/01 00:52:20;;;;;;;1999.90;999.90;;;;;;;3.27;100.00;98280.78;5051702;28;20133;-80
2022/12/01 00:54:46;;;;;;;1999.90;999.90;;;;;;;3.13;100.00;98282.13;5051086;28;20037;-77
2022/12/01 00:57:12;;;;;;;1999.90;999.90;;;;;;;3.07;100.00;98288.50;5051824;28;20021;-79
2022/12/01 00:59:37;;;;;;;1999.90;999.90;;;;;;;3.05;100.00;98277.91;5051884;28;20129;-79
2022/12/01 01:02:05;;;;;;;1999.90;999.90;;;;;;;2.96;100.00;98276.66;5051644;28;20074;-79
2022/12/01 01:04:32;;;;;;;1999.90;999.90;;;;;;;2.98;100.00;98288.03;5051547;28;20440;-78
2022/12/01 01:06:57;;;;;;;1999.90;999.90;;;;;;;2.89;100.00;98275.94;5050924;28;20036;-81
2022/12/01 01:09:23;;;;;;;1999.90;999.90;;;;;;;2.96;100.00;98287.44;5051652;28;20493;-80
2022/12/01 01:11:48;;;;;;;1999.90;999.90;;;;;;;3.05;100.00;98291.41;5051685;28;20025;-82
2022/12/01 01:14:14;;;;;;;1999.90;999.90;;;;;;;2.89;100.00;98265.13;5051691;28;20025;-78
2022/12/01 01:16:39;;;;;;;1999.90;999.90;;;;;;;3.00;100.00;98288.63;5052455;28;20142;-82
2022/12/01 01:19:05;;;;;;;1999.90;999.90;;;;;;;3.00;100.00;98282.41;5051584;28;21481;-78
2022/12/01 01:21:31;;;;;;;1999.90;999.90;;;;;;;3.06;100.00;98281.44;5053082;28;20025;-79
2022/12/01 01:23:56;;;;;;;1999.90;999.90;;;;;;;2.98;100.00;98274.50;5052181;28;20024;-78
2022/12/01 01:26:24;;;;;;;1999.90;999.90;;;;;;;3.08;100.00;98282.84;5051792;28;20459;-81
2022/12/01 01:28:50;;;;;;;1999.90;999.90;;;;;;;3.11;100.00;98285.06;5051615;28;20053;-79
2022/12/01 01:31:22;;;;;;;1999.90;999.90;;;;;;;3.12;100.00;98278.59;5052043;28;20027;-82
2022/12/01 01:33:47;;;;;;;1999.90;999.90;;;;;;;3.11;100.00;98276.94;5051424;28;20424;-85
2022/12/01 01:36:14;;;;;;;1999.90;999.90;;;;;;;3.08;100.00;98273.91;5051558;28;20029;-80
2022/12/01 01:38:39;;;;;;;1999.90;999.90;;;;;;;3.21;100.00;98284.44;5050986;28;20028;-81
2022/12/01 01:41:06;;;;;;;1999.90;999.90;;;;;;;3.03;100.00;98261.13;5052250;28;20031;-82
2022/12/01 01:43:42;;;;;;;1999.90;999.90;;;;;;;3.15;100.00;98280.81;5051938;28;20021;-80
2022/12/01 01:46:11;;;;;;;1999.90;999.90;;;;;;;3.07;100.00;98273.06;5056034;28;20036;-84
2022/12/01 01:48:38;;;;;;;1999.90;999.90;;;;;;;3.04;100.00;98273.56;5062387;28;20025;-84
2022/12/01 01:51:05;;;;;;;1999.90;999.90;;;;;;;3.12;100.00;98286.72;5066354;28;20108;-87
2022/12/01 01:53:30;;;;;;;1999.90;999.90;;;;;;;3.17;100.00;98277.88;5067601;28;20096;-85
2022/12/01 01:55:57;;;;;;;1999.90;999.90;;;;;;;3.19;100.00;98282.00;5062974;28;20048;-82
2022/12/01 01:58:23;;;;;;;1999.90;999.90;;;;;;;3.21;100.00;98285.25;5061828;28;20027;-87
2022/12/01 02:00:48;;;;;;;1999.90;999.90;;;;;;;3.18;100.00;98284.91;5063107;28;20147;-84
2022/12/01 02:03:17;;;;;;;1999.90;999.90;;;;;;;3.24;100.00;98282.09;5071494;28;20025;-86
2022/12/01 02:05:45;;;;;;;1999.90;999.90;;;;;;;3.26;100.00;98278.31;5076738;28;20049;-83
2022/12/01 02:08:11;;;;;;;1999.90;999.90;;;;;;;3.29;100.00;98275.94;5077014;28;20043;-86
2022/12/01 02:11:18;;;;;;;1999.90;999.90;;;;;;;3.31;100.00;98281.13;5075565;28;20469;-82
2022/12/01 02:14:12;;;;;;;1999.90;999.90;;;;;;;3.34;100.00;98275.22;5070353;28;20044;-85
2022/12/01 02:16:52;;;;;;;1999.90;999.90;;;;;;;3.31;100.00;98267.59;5076254;28;20029;-84
2022/12/01 02:19:35;;;;;;;1999.90;999.90;;;;;;;3.12;100.00;98270.50;5075989;28;20020;-84
2022/12/01 02:22:31;;;;;;;1999.90;999.90;;;;;;;3.11;100.00;98268.00;5077744;28;20025;-83
2022/12/01 02:25:08;;;;;;;1999.90;999.90;;;;;;;3.08;100.00;98266.63;5076826;28;20028;-86
2022/12/01 02:28:12;;;;;;;1999.90;999.90;;;;;;;3.08;100.00;98258.50;5077579;28;20029;-85
2022/12/01 02:30:48;;;;;;;1999.90;999.90;;;;;;;3.03;100.00;98261.13;5075715;28;20101;-87
2022/12/01 02:33:22;;;;;;;1999.90;999.90;;;;;;;3.07;100.00;98264.97;5077575;28;20100;-85
2022/12/01 02:36:07;;;;;;;1999.90;999.90;;;;;;;3.06;100.00;98262.53;5078389;28;20020;-86
2022/12/01 02:38:44;;;;;;;1999.90;999.90;;;;;;;3.08;100.00;98265.78;5077947;28;20128;-83
2022/12/01 02:41:19;;;;;;;1999.90;999.90;;;;;;;3.08;100.00;98269.31;5077265;28;20280;-83
2022/12/01 02:44:09;;;;;;;1999.90;999.90;;;;;;;3.11;100.00;98262.63;5075985;28;20028;-82
2022/12/01 02:46:40;;;;;;;1999.90;999.90;;;;;;;3.10;100.00;98252.88;5076153;28;20044;-84
2022/12/01 02:49:14;;;;;;;1999.90;999.90;;;;;;;3.20;100.00;98259.28;5075531;28;20029;-84
2022/12/01 02:51:45;;;;;;;1999.90;999.90;;;;;;;3.18;100.00;98263.31;5065093;28;20059;-88
2022/12/01 02:54:13;;;;;;;1999.90;999.90;;;;;;;3.02;100.00;98261.34;5042838;28;20516;-85
2022/12/01 02:56:38;;;;;;;1999.90;999.90;;;;;;;2.98;100.00;98266.41;5053104;28;20029;-84
2022/12/01 02:59:12;;;;;;;1999.90;999.90;;;;;;;2.96;100.00;98265.84;5053616;28;20466;-84
2022/12/01 03:01:51;;;;;;;1999.90;999.90;;;;;;;2.92;100.00;98242.22;5053255;28;20037;-85
2022/12/01 03:04:45;;;;;;;1999.90;999.90;;;;;;;3.00;100.00;98256.19;5060105;28;20044;-83
2022/12/01 03:07:34;;;;;;;1999.90;999.90;;;;;;;3.05;100.00;98250.88;5061948;28;20036;-85
2022/12/01 03:10:23;;;;;;;1999.90;999.90;;;;;;;3.13;100.00;98249.69;5055307;28;20561;-84
2022/12/01 03:13:00;;;;;;;1999.90;999.90;;;;;;;3.02;100.00;98245.97;5042411;28;20030;-83
2022/12/01 03:15:37;;;;;;;1999.90;999.90;;;;;;;3.04;100.00;98235.72;5040225;28;20497;-86
2022/12/01 03:18:54;;;;;;;1999.90;999.90;;;;;;;2.99;100.00;98243.75;5036199;28;20425;-82
2022/12/01 03:21:34;;;;;;;1999.90;999.90;;;;;;;2.90;100.00;98234.38;5037874;28;20389;-83
2022/12/01 03:24:05;;;;;;;1999.90;999.90;;;;;;;2.95;100.00;98236.34;5038203;28;20041;-83
2022/12/01 03:26:33;;;;;;;1999.90;999.90;;;;;;;2.99;100.00;98232.94;5037883;28;20049;-82
2022/12/01 03:29:12;;;;;;;1999.90;999.90;;;;;;;2.88;100.00;98224.88;5038810;28;20478;-83
2022/12/01 03:31:47;;;;;;;1999.90;999.90;;;;;;;2.94;100.00;98242.84;5038626;28;20025;-83
2022/12/01 03:34:24;;;;;;;1999.90;999.90;;;;;;;2.95;100.00;98241.75;5038433;28;20048;-85
2022/12/01 03:36:57;;;;;;;1999.90;999.90;;;;;;;2.90;100.00;98239.78;5039596;28;20310;-82
2022/12/01 03:39:27;;;;;;;1999.90;999.90;;;;;;;2.94;100.00;98242.84;5039150;28;20088;-81
2022/12/01 03:42:04;;;;;;;1999.90;999.90;;;;;;;2.90;100.00;98237.09;5038957;28;20116;-85
2022/12/01 03:44:38;;;;;;;1999.90;999.90;;;;;;;2.97;100.00;98239.66;5039850;28;20032;-84
2022/12/01 03:47:08;;;;;;;1999.90;999.90;;;;;;;2.97;100.00;98240.47;5038574;28;20509;-79
2022/12/01 03:49:34;;;;;;;1999.90;999.90;;;;;;;3.00;100.00;98239.16;5038169;28;20056;-84
2022/12/01 03:52:22;;;;;;;1999.90;999.90;;;;;;;3.03;100.00;98242.22;5037896;28;20143;-83
2022/12/01 03:55:09;;;;;;;1999.90;999.90;;;;;;;3.06;100.00;98241.72;5038353;28;20033;-80
2022/12/01 03:58:16;;;;;;;1999.90;999.90;;;;;;;3.09;100.00;98241.25;5039166;28;20413;-84
2022/12/01 04:00:42;;;;;;;;;;;;;;;3.05;100.00;98248.19;5044389;28;20030;-81
2022/12/01 04:03:16;;;;;;;1999.90;999.90;;;;;;;2.97;100.00;98243.19;5042602;28;19920;-84
2022/12/01 04:05:42;;;;;;;1999.90;999.90;;;;;;;2.86;100.00;98233.22;5038565;28;20049;-83
2022/12/01 04:08:07;;;;;;;1999.90;999.90;;;;;;;2.84;100.00;98234.50;5040887;28;20025;-84
2022/12/01 04:10:32;;;;;;;1999.90;999.90;;;;;;;2.93;100.00;98238.47;5057119;28;20077;-83
2022/12/01 04:12:58;;;;;;;1999.90;999.90;;;;;;;2.86;100.00;98238.59;5056984;28;20076;-80
2022/12/01 04:15:25;;;;;;;1999.90;999.90;;;;;;;2.84;100.00;98240.75;5057508;28;20494;-84
2022/12/01 04:17:50;;;;;;;1999.90;999.90;;;;;;;2.77;100.00;98244.63;5057670;28;20025;-86
2022/12/01 04:20:16;;;;;;;1999.90;999.90;;;;;;;2.64;100.00;98243.81;5055142;28;20076;-84
2022/12/01 04:22:42;;;;;;;1999.90;999.90;;;;;;;2.60;100.00;98239.16;5057046;28;20025;-83
2022/12/01 04:25:08;;;;;;;1999.90;999.90;;;;;;;2.62;100.00;98240.56;5057319;28;20021;-85
2022/12/01 04:27:34;;;;;;;1999.90;999.90;;;;;;;2.53;100.00;98225.78;5056851;28;21413;-86
2022/12/01 04:30:00;;;;;;;1999.90;999.90;;;;;;;2.59;100.00;98237.50;5056823;28;20102;-85
2022/12/01 04:32:25;;;;;;;1999.90;999.90;;;;;;;2.77;100.00;98247.31;5057710;28;20504;-84
2022/12/01 04:34:50;;;;;;;1999.90;999.90;;;;;;;2.84;100.00;98232.63;5056828;28;20095;-84
2022/12/01 04:37:17;;;;;;;1999.90;999.90;;;;;;;2.87;100.00;98240.25;5057608;28;20894;-85
2022/12/01 04:39:42;;;;;;;1999.90;999.90;;;;;;;2.95;100.00;98239.88;5058136;28;20041;-83
2022/12/01 04:42:08;;;;;;;1999.90;999.90;;;;;;;2.94;100.00;98245.53;5058005;28;20505;-83
2022/12/01 04:44:34;;;;;;;1999.90;999.90;;;;;;;2.90;100.00;98238.97;5057277;28;20028;-82
2022/12/01 04:47:00;;;;;;;1999.90;999.90;;;;;;;2.84;100.00;98238.03;5058329;28;20016;-82
2022/12/01 04:49:25;;;;;;;1999.90;999.90;;;;;;;2.80;100.00;98234.16;5054913;28;20056;-83
2022/12/01 04:51:51;;;;;;;1999.90;999.90;;;;;;;2.91;100.00;98243.31;5056852;28;20025;-86
2022/12/01 04:54:17;;;;;;;1999.90;999.90;;;;;;;3.03;100.00;98244.91;5056904;28;20029;-83
2022/12/01 04:56:42;;;;;;;1999.90;999.90;;;;;;;2.88;100.00;98231.06;5056252;28;20029;-83
2022/12/01 04:59:08;;;;;;;1999.90;999.90;;;;;;;2.88;100.00;98231.06;5055762;28;20033;-84
2022/12/01 05:01:33;;;;;;;1999.90;999.90;;;;;;;2.74;100.00;98229.72;5054533;28;20023;-85
2022/12/01 05:03:59;;;;;;;1999.90;999.90;;;;;;;2.70;100.00;98239.34;5055875;28;20482;-84
2022/12/01 05:06:27;;;;;;;1999.90;999.90;;;;;;;2.74;100.00;98243.22;5056529;28;20056;-84
2022/12/01 05:08:58;;;;;;;1999.90;999.90;;;;;;;2.75;100.00;98247.56;5057279;28;20037;-84
2022/12/01 05:11:27;;;;;;;1999.90;999.90;;;;;;;2.71;100.00;98230.19;5059490;28;20049;-85
2022/12/01 05:13:52;;;;;;;1999.90;999.90;;;;;;;2.69;100.00;98240.44;5058699;28;20033;-85
2022/12/01 05:16:22;;;;;;;1999.90;999.90;;;;;;;2.87;100.00;98236.72;5058123;28;20048;-82
2022/12/01 05:20:55;;;;;;;1999.90;999.90;;;;;;;2.88;100.00;98238.38;5056034;28;20487;-86
2022/12/01 05:21:41;;;;;;;1999.90;999.90;;;;;;;2.87;100.00;98250.25;5053657;28;20056;-83
2022/12/01 05:24:08;;;;;;;1999.90;999.90;;;;;;;2.75;100.00;98239.47;5063355;28;20045;-87
2022/12/01 05:26:34;;;;;;;1999.90;999.90;;;;;;;2.77;100.00;98240.03;5063057;28;20114;-85
2022/12/01 05:29:00;;;;;;;1999.90;999.90;;;;;;;2.70;100.00;98245.56;5058454;28;20469;-83
2022/12/01 05:31:25;;;;;;;1999.90;999.90;;;;;;;2.68;100.00;98246.88;5058585;28;20031;-85
2022/12/01 05:33:50;;;;;;;1999.90;999.90;;;;;;;2.73;100.00;98249.66;5056221;28;20424;-84
2022/12/01 05:36:16;;;;;;;1999.90;999.90;;;;;;;2.66;100.00;98244.41;5056340;28;20029;-85
2022/12/01 05:38:41;;;;;;;1999.90;999.90;;;;;;;2.70;100.00;98250.16;5057142;28;20021;-81
2022/12/01 05:41:06;;;;;;;1999.90;999.90;;;;;;;2.65;100.00;98247.34;5057898;28;20029;-85
2022/12/01 05:43:32;;;;;;;1999.90;999.90;;;;;;;2.63;100.00;98233.28;5058165;28;20075;-82
2022/12/01 05:45:57;;;;;;;1999.90;999.90;;;;;;;2.62;100.00;98247.81;5059148;28;20078;-84
2022/12/01 05:48:23;;;;;;;1999.90;999.90;;;;;;;2.59;100.00;98248.31;5058987;28;20018;-83
2022/12/01 05:50:48;;;;;;;1999.90;999.90;;;;;;;2.58;100.00;98254.75;5061480;28;20053;-82
2022/12/01 05:53:14;;;;;;;1999.90;999.90;;;;;;;2.58;100.00;98249.34;5060850;28;20095;-83
2022/12/01 05:55:40;;;;;;;1999.90;999.90;;;;;;;2.60;100.00;98255.34;5059790;28;20032;-84
2022/12/01 05:58:06;;;;;;;1999.90;999.90;;;;;;;2.68;100.00;98261.19;5058286;28;20508;-83
2022/12/01 06:00:31;;;;;;;1999.90;999.90;;;;;;;2.57;100.00;98253.09;5057877;28;20033;-83
2022/12/01 06:02:56;;;;;;;1999.90;999.90;;;;;;;2.62;100.00;98261.31;5057779;28;20060;-86
2022/12/01 06:05:22;;;;;;;1999.90;999.90;;;;;;;2.60;100.00;98261.56;5059230;28;20903;-86
2022/12/01 06:07:47;;;;;;;1999.90;999.90;;;;;;;2.65;100.00;98266.25;5058933;28;20068;-86
2022/12/01 06:10:13;;;;;;;1999.90;999.90;;;;;;;2.52;100.00;98261.09;5064442;28;20140;-83
2022/12/01 06:12:38;;;;;;;1999.90;999.90;;;;;;;2.63;100.00;98260.28;5065138;28;20027;-86
2022/12/01 06:15:05;;;;;;;1999.90;999.90;;;;;;;2.67;100.00;98258.72;5059289;28;20040;-86
2022/12/01 06:17:31;;;;;;;1999.90;999.90;;;;;;;2.59;100.00;98259.09;5058632;28;20023;-83
2022/12/01 06:19:56;;;;;;;1999.90;999.90;;;;;;;2.65;100.00;98269.78;5059754;28;20020;-83
2022/12/01 06:22:21;;;;;;;1999.90;999.90;;;;;;;2.72;100.00;98269.66;5060697;28;20037;-82
2022/12/01 06:24:47;;;;;;;1999.90;999.90;;;;;;;2.69;100.00;98265.53;5055060;28;20027;-78
2022/12/01 06:27:12;;;;;;;1999.90;999.90;;;;;;;2.67;100.00;98270.34;5050601;28;20074;-78
2022/12/01 06:29:37;;;;;;;1999.90;999.90;;;;;;;2.57;100.00;98272.81;5049785;28;20033;-77
2022/12/01 06:32:03;;;;;;;1999.90;999.90;;;;;;;2.65;100.00;98279.75;5049858;28;20029;-78
2022/12/01 06:34:28;;;;;;;1999.90;999.90;;;;;;;2.64;100.00;98287.03;5052017;28;20027;-83
2022/12/01 06:36:54;;;;;;;1999.90;999.90;;;;;;;2.66;100.00;98276.00;5054994;28;20048;-78
2022/12/01 06:39:19;;;;;;;1999.90;999.90;;;;;;;2.54;100.00;98265.19;5061304;28;20025;-82
2022/12/01 06:41:44;;;;;;;1999.90;999.90;;;;;;;3.09;100.00;98283.66;5060050;28;20036;-85
2022/12/01 06:44:10;;;;;;;1999.90;999.90;;;;;;;3.06;100.00;98282.25;5060037;28;20025;-83
2022/12/01 06:46:35;;;;;;;1999.90;999.90;;;;;;;3.37;100.00;98293.66;5060149;28;20032;-84
2022/12/01 06:49:01;;;;;;;1999.90;999.90;;;;;;;3.48;100.00;98293.63;5059692;28;20020;-83
2022/12/01 06:51:27;;;;;;;1999.90;999.90;;;;;;;3.23;100.00;98295.81;5058769;28;20474;-86
2022/12/01 06:53:53;;;;;;;1999.90;999.90;;;;;;;3.81;100.00;98295.59;5062612;28;20017;-83
2022/12/01 06:56:20;;;;;;;1999.90;999.90;;;;;;;3.50;100.00;98302.31;5056654;28;20060;-72
2022/12/01 06:58:48;;;;;;;1999.90;999.90;;;;;;;3.75;100.00;98299.28;5053648;28;20071;-73
2022/12/01 07:01:16;;;;;;;1999.90;999.90;;;;;;;3.25;100.00;98304.53;5038379;28;20449;-72
2022/12/01 07:03:42;;;;;;;1999.90;999.90;;;;;;;3.15;100.00;98296.22;5047972;28;20044;-85
2022/12/01 07:06:08;;;;;;;1999.90;999.90;;;;;;;3.04;100.00;98307.84;5057938;28;20454;-83
2022/12/01 07:08:33;;;;;;;1999.90;999.90;;;;;;;2.88;100.00;98304.00;5058331;28;20083;-85
2022/12/01 07:11:01;;;;;;;1999.90;999.90;;;;;;;2.92;100.00;98302.47;5057886;28;20474;-85
2022/12/01 07:13:26;;;;;;;1999.90;999.90;;;;;;;3.11;100.00;98305.84;5056861;28;20056;-83
2022/12/01 07:15:52;;;;;;;1999.90;999.90;;;;;;;3.07;100.00;98308.19;5057239;28;20063;-84
2022/12/01 07:18:17;;;;;;;1999.90;999.90;;;;;;;3.01;100.00;98311.84;5055410;28;20059;-79
2022/12/01 07:20:42;;;;;;;1999.90;999.90;;;;;;;3.09;100.00;98310.69;5058538;28;20089;-83
2022/12/01 07:23:08;;;;;;;1999.90;999.90;;;;;;;3.24;100.00;98306.41;5056697;28;20122;-79
2022/12/01 07:25:33;;;;;;;1999.90;999.90;;;;;;;3.22;100.00;98310.41;5039946;28;20033;-84
2022/12/01 07:27:59;;;;;;;1999.90;999.90;;;;;;;3.07;100.00;98305.50;5043712;28;20022;-79
2022/12/01 07:30:24;;;;;;;1999.90;999.90;;;;;;;3.14;100.00;98317.00;5043008;28;20092;-81
2022/12/01 07:32:49;;;;;;;1999.90;999.90;;;;;;;3.03;100.00;98308.94;5054047;28;20043;-84
2022/12/01 07:35:15;;;;;;;1999.90;999.90;;;;;;;2.99;100.00;98318.56;5061737;28;20044;-85
2022/12/01 07:37:40;;;;;;;1999.90;999.90;;;;;;;2.91;100.00;98313.53;5061768;28;20024;-86
2022/12/01 07:40:06;;;;;;;1999.90;999.90;;;;;;;3.03;100.00;98309.75;5066437;28;20032;-85
2022/12/01 07:42:31;;;;;;;1999.90;999.90;;;;;;;3.11;100.00;98317.47;5068239;28;20021;-87
2022/12/01 07:44:57;;;;;;;1999.90;999.90;;;;;;;3.08;100.00;98322.53;5069787;28;20031;-86
2022/12/01 07:47:22;;;;;;;1999.90;999.90;;;;;;;2.99;100.00;98321.25;5067018;28;20490;-88
2022/12/01 07:49:48;;;;;;;1999.90;999.90;;;;;;;3.05;100.00;98323.84;5072163;28;20032;-87
2022/12/01 07:52:16;;;;;;;1999.90;999.90;;;;;;;3.03;100.00;98325.16;5073285;28;20032;-82
2022/12/01 07:54:42;;;;;;;1999.90;999.90;;;;;;;3.20;100.00;98326.03;5053897;28;20030;-83
2022/12/01 07:57:07;;;;;;;1999.90;999.90;;;;;;;3.34;100.00;98321.19;5053579;28;20027;-84
2022/12/01 07:59:33;;;;;;;1999.90;999.90;;;;;;;3.43;100.00;98336.78;5055501;28;20355;-78
2022/12/01 08:01:58;;;;;;;1999.90;999.90;;;;;;;3.45;100.00;98336.53;5054398;28;20029;-76
2022/12/01 08:04:23;;;;;;;1999.90;999.90;;;;;;;3.43;100.00;98335.97;5052518;28;20041;-76
2022/12/01 08:06:49;;;;;;;1999.90;999.90;;;;;;;3.47;100.00;98331.72;5055757;28;20037;-78
2022/12/01 08:09:14;;;;;;;1999.90;999.90;;;;;;;3.51;100.00;98338.31;5064362;28;20029;-83
2022/12/01 08:11:39;;;;;;;1999.90;999.90;;;;;;;3.54;100.00;98332.41;5065160;28;20067;-84
2022/12/01 08:14:05;;;;;;;1999.90;999.90;;;;;;;3.60;100.00;98339.56;5071352;28;20033;-84
2022/12/01 08:16:30;;;;;;;1999.90;999.90;;;;;;;3.52;100.00;98339.94;5071799;28;20029;-84
2022/12/01 08:18:56;;;;;;;1999.90;999.90;;;;;;;3.51;100.00;98343.72;5074289;28;20079;-84
2022/12/01 08:21:22;;;;;;;1999.90;999.90;;;;;;;3.37;100.00;98347.72;5075127;28;20037;-83
2022/12/01 08:23:52;;;;;;;1999.90;999.90;;;;;;;3.41;100.00;98344.31;5072703;28;20017;-85
2022/12/01 08:26:19;;;;;;;1999.90;999.90;;;;;;;3.51;100.00;98344.50;5073064;28;20036;-85
2022/12/01 08:28:45;;;;;;;1999.90;999.90;;;;;;;3.46;100.00;98338.19;5073146;28;20032;-84
2022/12/01 08:31:15;;;;;;;1999.90;999.90;;;;;;;3.44;100.00;98334.91;5073270;28;20033;-81
2022/12/01 08:33:42;;;;;;;1999.90;999.90;;;;;;;3.59;100.00;98346.03;5074700;28;20047;-84
2022/12/01 08:36:08;;;;;;;1999.90;999.90;;;;;;;3.74;100.00;98343.59;5073587;28;20036;-85
2022/12/01 08:38:34;;;;;;;1999.90;999.90;;;;;;;3.91;100.00;98349.06;5074628;28;20072;-84
2022/12/01 08:41:04;;;;;;;1999.90;999.90;;;;;;;3.90;100.00;98345.53;5067601;28;20049;-85
2022/12/01 08:43:30;;;;;;;1999.90;999.90;;;;;;;3.87;100.00;98351.44;5055661;28;20029;-81
2022/12/01 08:46:01;;;;;;;1999.90;999.90;;;;;;;3.79;100.00;98354.50;5069163;28;20009;-85
2022/12/01 08:48:30;;;;;;;1999.90;999.90;;;;;;;3.78;100.00;98350.19;5074977;28;20032;-86
2022/12/01 08:51:01;;;;;;;1999.90;999.90;;;;;;;3.90;100.00;98361.75;5072975;28;20061;-82
2022/12/01 08:53:27;;;;;;;1999.90;999.90;;;;;;;3.71;100.00;98355.72;5071526;28;20029;-85
2022/12/01 08:55:52;;;;;;;1999.90;999.90;;;;;;;3.79;100.00;98359.91;5073845;28;20060;-83
2022/12/01 08:58:17;;;;;;;1999.90;999.90;;;;;;;3.69;100.00;98357.03;5075565;28;20146;-83
2022/12/01 09:00:43;;;;;;;1999.90;999.90;;;;;;;3.60;100.00;98347.66;5070084;28;20024;-84
2022/12/01 09:03:08;;;;;;;1999.90;999.90;;;;;;;3.51;100.00;98357.22;5068659;28;20047;-85
2022/12/01 09:05:33;;;;;;;1999.90;999.90;;;;;;;3.55;100.00;98366.47;5073525;28;20048;-83
2022/12/01 09:10:50;;;;;;;1999.90;999.90;;;;;;;3.62;100.00;98372.59;5072720;28;20060;-85
2022/12/01 09:13:15;;;;;;;1999.90;999.90;;;;;;;3.72;100.00;98376.31;5073784;28;20039;-85
2022/12/01 09:15:40;;;;;;;1999.90;999.90;;;;;;;3.70;100.00;98375.72;5072032;28;20017;-86
2022/12/01 09:18:06;;;;;;;1999.90;999.90;;;;;;;3.64;100.00;98375.84;5070124;28;20071;-86
2022/12/01 09:20:31;;;;;;;1999.90;999.90;;;;;;;3.51;100.00;98381.56;5070470;28;20067;-84
2022/12/01 09:22:57;;;;;;;1999.90;999.90;;;;;;;3.45;100.00;98377.91;5072179;28;20073;-86
2022/12/01 09:25:22;;;;;;;1999.90;999.90;;;;;;;3.40;100.00;98374.28;5072957;28;20029;-85
2022/12/01 09:27:47;;;;;;;1999.90;999.90;;;;;;;3.47;100.00;98381.22;5071431;28;20084;-82
2022/12/01 09:30:13;;;;;;;1999.90;999.90;;;;;;;3.46;100.00;98376.88;5072800;28;20040;-86
2022/12/01 09:32:38;;;;;;;1999.90;999.90;;;;;;;3.56;100.00;98381.66;5072582;28;20033;-86
2022/12/01 09:35:04;;;;;;;1999.90;999.90;;;;;;;3.62;100.00;98378.00;5072361;28;20040;-87
2022/12/01 09:37:29;;;;;;;1999.90;999.90;;;;;;;3.74;100.00;98376.06;5070616;28;20036;-86
2022/12/01 09:39:55;;;;;;;1999.90;999.90;;;;;;;3.83;100.00;98371.91;5069965;28;20047;-89
2022/12/01 09:42:26;;;;;;;1999.90;999.90;;;;;;;3.89;100.00;98360.09;5070682;28;20017;-85
2022/12/01 09:44:53;;;;;;;1999.90;999.90;;;;;;;3.95;100.00;98367.25;5071567;28;20120;-85
2022/12/01 09:47:32;;;;;;;1999.90;999.90;;;;;;;3.94;100.00;98368.34;5068701;28;20021;-85
2022/12/01 09:50:03;;;;;;;1999.90;999.90;;;;;;;3.97;100.00;98357.03;5069040;28;20044;-84
2022/12/01 09:52:40;;;;;;;1999.90;999.90;;;;;;;4.07;100.00;98359.91;5068702;28;20027;-83
2022/12/01 09:55:11;;;;;;;1999.90;999.90;;;;;;;4.15;100.00;98367.63;5069133;28;20486;-85
2022/12/01 09:57:39;;;;;;;1999.90;999.90;;;;;;;4.16;100.00;98363.88;5068985;28;20048;-82
2022/12/01 10:00:36;;;;;;;1999.90;999.90;;;;;;;4.16;100.00;98371.16;5072354;28;20017;-85
2022/12/01 10:03:05;;;;;;;1999.90;999.90;;;;;;;4.21;100.00;98368.53;5074185;28;20017;-85
2022/12/01 10:05:43;;;;;;;1999.90;999.90;;;;;;;4.25;100.00;98367.81;5073596;28;20045;-87
2022/12/01 10:08:18;;;;;;;1999.90;999.90;;;;;;;4.30;100.00;98359.78;5070416;28;20005;-85
2022/12/01 10:10:50;;;;;;;1999.90;999.90;;;;;;;4.35;100.00;98352.81;5072879;28;20049;-86
2022/12/01 10:13:18;;;;;;;1999.90;999.90;;;;;;;4.30;100.00;98348.94;5079020;28;20029;-87
2022/12/01 10:15:52;;;;;;;1999.90;999.90;;;;;;;4.27;100.00;98357.56;5078953;28;20084;-85
2022/12/01 10:18:32;;;;;;;1999.90;999.90;;;;;;;4.31;100.00;98345.19;5077992;28;20063;-84
2022/12/01 10:21:03;;;;;;;1999.90;999.90;;;;;;;4.33;100.00;98348.44;5076402;28;20017;-87
2022/12/01 10:23:43;;;;;;;1999.90;999.90;;;;;;;4.46;100.00;98341.06;5078182;28;20056;-86
2022/12/01 10:26:14;;;;;;;1999.90;999.90;;;;;;;4.48;100.00;98356.00;5078338;28;20044;-83
2022/12/01 10:29:01;;;;;;;1999.90;999.90;;;;;;;4.53;100.00;98331.72;5080024;28;20043;-85
2022/12/01 10:31:46;;;;;;;1999.90;999.90;;;;;;;4.39;100.00;98338.50;5078741;28;20021;-84
2022/12/01 10:34:37;;;;;;;1999.90;999.90;;;;;;;4.60;100.00;98334.25;5078072;28;20040;-82
2022/12/01 10:37:03;;;;;;;1999.90;999.90;;;;;;;4.65;100.00;98328.91;5069632;28;20422;-79
2022/12/01 10:39:33;;;;;;;1999.90;999.90;;;;;;;4.50;100.00;98332.22;5077791;28;20028;-85
2022/12/01 10:42:33;;;;;;;1999.90;999.90;;;;;;;4.55;100.00;98332.28;5071820;28;20048;-86
2022/12/01 10:45:23;;;;;;;1999.90;999.90;;;;;;;4.45;100.00;98332.13;5069985;28;20047;-77
2022/12/01 10:48:15;;;;;;;1999.90;999.90;;;;;;;4.46;100.00;98324.81;5068069;28;20079;-84
2022/12/01 10:50:46;;;;;;;1999.90;999.90;;;;;;;4.46;100.00;98313.97;5074329;28;20020;-87
2022/12/01 10:53:35;;;;;;;1999.90;999.90;;;;;;;4.53;100.00;98331.72;5072810;28;20025;-81
2022/12/01 10:56:09;;;;;;;1999.90;999.90;;;;;;;4.52;100.00;98323.81;5073533;28;20045;-81
2022/12/01 10:58:49;;;;;;;1999.90;999.90;;;;;;;4.36;100.00;98327.34;5072869;28;20107;-90
2022/12/01 11:01:21;;;;;;;1999.90;999.90;;;;;;;4.33;100.00;98315.97;5071679;28;20021;-78
2022/12/01 11:03:53;;;;;;;1999.90;999.90;;;;;;;4.24;100.00;98316.63;5073142;28;20037;-79
2022/12/01 11:06:23;;;;;;;1999.90;999.90;;;;;;;4.32;100.00;98324.34;5056312;28;20037;-81
2022/12/01 11:08:58;;;;;;;1999.90;999.90;;;;;;;4.39;100.00;98316.03;5053529;28;20034;-83